TIG711 KLAX-PANC
Flight info
| Callsign | TIG711 |
|---|---|
| Flight time | N/A |
| Altitude | 40000 |
| Route | SUMMR2 SCTRR PYE J143 ENI FOT KYLLE B453 MDO YESKA6 |
| Aircraft | B738/M-SDE2E3FGHIRWXY/LB1 |
Departure
| Time | 2026-05-04 04:09 |
|---|---|
| Airport | Los Angeles International Airport (KLAX) |
Arrival
| Time | N/A |
|---|---|
| Airport | Ted Stevens Anchorage International Airport (PANC) |
| Time | Latitude | Longitude | Altitude | Speed | Heading |
|---|---|---|---|---|---|
| 2026-05-04 03:46 | 33.94400 | -118.42874 | 111 ft | 0 kts | 263° |
| 2026-05-04 03:53 | 33.94400 | -118.42868 | 111 ft | 2 kts | 263° |
| 2026-05-04 03:53 | 33.94402 | -118.42850 | 112 ft | 2 kts | 263° |
| 2026-05-04 03:53 | 33.94404 | -118.42833 | 112 ft | 2 kts | 263° |
| 2026-05-04 03:54 | 33.94406 | -118.42815 | 112 ft | 2 kts | 263° |
| 2026-05-04 03:54 | 33.94408 | -118.42797 | 112 ft | 2 kts | 263° |
| 2026-05-04 03:54 | 33.94410 | -118.42780 | 113 ft | 2 kts | 272° |
| 2026-05-04 03:54 | 33.94405 | -118.42762 | 113 ft | 2 kts | 300° |
| 2026-05-04 03:55 | 33.94396 | -118.42748 | 112 ft | 2 kts | 324° |
| 2026-05-04 03:55 | 33.94382 | -118.42741 | 112 ft | 1 kts | 348° |
| 2026-05-04 03:55 | 33.94376 | -118.42740 | 112 ft | 1 kts | 355° |
| 2026-05-04 03:55 | 33.94374 | -118.42739 | 112 ft | 0 kts | 353° |
| 2026-05-04 03:59 | 33.94404 | -118.42744 | 113 ft | 9 kts | 354° |
| 2026-05-04 03:59 | 33.94499 | -118.42758 | 114 ft | 16 kts | 353° |
| 2026-05-04 03:59 | 33.94606 | -118.42774 | 117 ft | 13 kts | 353° |
| 2026-05-04 03:59 | 33.94692 | -118.42777 | 119 ft | 11 kts | 25° |
| 2026-05-04 04:00 | 33.94732 | -118.42704 | 120 ft | 3 kts | 71° |
| 2026-05-04 04:00 | 33.94733 | -118.42703 | 120 ft | 0 kts | 71° |
| 2026-05-04 04:00 | 33.94732 | -118.42695 | 120 ft | 2 kts | 104° |
| 2026-05-04 04:00 | 33.94736 | -118.42673 | 120 ft | 1 kts | 7° |
| 2026-05-04 04:01 | 33.94732 | -118.42705 | 120 ft | 8 kts | 230° |
| 2026-05-04 04:01 | 33.94702 | -118.42749 | 119 ft | 0 kts | 232° |
| 2026-05-04 04:01 | 33.94700 | -118.42751 | 119 ft | 2 kts | 216° |
| 2026-05-04 04:01 | 33.94643 | -118.42730 | 119 ft | 16 kts | 114° |
| 2026-05-04 04:02 | 33.94652 | -118.42548 | 120 ft | 24 kts | 83° |
| 2026-05-04 04:02 | 33.94672 | -118.42355 | 121 ft | 21 kts | 83° |
| 2026-05-04 04:02 | 33.94689 | -118.42182 | 123 ft | 19 kts | 83° |
| 2026-05-04 04:02 | 33.94705 | -118.42024 | 124 ft | 18 kts | 83° |
| 2026-05-04 04:03 | 33.94720 | -118.41879 | 126 ft | 16 kts | 83° |
| 2026-05-04 04:03 | 33.94734 | -118.41747 | 127 ft | 16 kts | 83° |
| 2026-05-04 04:03 | 33.94750 | -118.41586 | 128 ft | 21 kts | 83° |
| 2026-05-04 04:03 | 33.94769 | -118.41425 | 129 ft | 17 kts | 72° |
| 2026-05-04 04:04 | 33.94793 | -118.41302 | 130 ft | 13 kts | 83° |
| 2026-05-04 04:04 | 33.94805 | -118.41182 | 131 ft | 16 kts | 83° |
| 2026-05-04 04:04 | 33.94820 | -118.41027 | 131 ft | 18 kts | 84° |
| 2026-05-04 04:04 | 33.94835 | -118.40895 | 130 ft | 14 kts | 83° |
| 2026-05-04 04:05 | 33.94848 | -118.40768 | 129 ft | 16 kts | 83° |
| 2026-05-04 04:05 | 33.94863 | -118.40621 | 128 ft | 17 kts | 83° |
| 2026-05-04 04:05 | 33.94877 | -118.40482 | 127 ft | 16 kts | 83° |
| 2026-05-04 04:05 | 33.94892 | -118.40339 | 125 ft | 18 kts | 83° |
| 2026-05-04 04:06 | 33.94908 | -118.40183 | 124 ft | 17 kts | 83° |
| 2026-05-04 04:06 | 33.94922 | -118.40050 | 123 ft | 14 kts | 82° |
| 2026-05-04 04:06 | 33.94938 | -118.39941 | 120 ft | 8 kts | 58° |
| 2026-05-04 04:06 | 33.94948 | -118.39929 | 120 ft | 0 kts | 36° |
| 2026-05-04 04:07 | 33.94953 | -118.39925 | 119 ft | 1 kts | 31° |
| 2026-05-04 04:08 | 33.94966 | -118.39918 | 119 ft | 2 kts | 20° |
| 2026-05-04 04:08 | 33.95000 | -118.39915 | 119 ft | 8 kts | 353° |
| 2026-05-04 04:08 | 33.95040 | -118.39966 | 119 ft | 9 kts | 268° |
| 2026-05-04 04:08 | 33.95032 | -118.40047 | 119 ft | 15 kts | 264° |
| 2026-05-04 04:09 | 33.95002 | -118.40346 | 124 ft | 76 kts | 263° |
| 2026-05-04 04:09 | 33.94900 | -118.41347 | 182 ft | 157 kts | 263° |
| 2026-05-04 04:09 | 33.94770 | -118.42658 | 1184 ft | 162 kts | 262° |
| 2026-05-04 04:09 | 33.94622 | -118.44003 | 2090 ft | 173 kts | 262° |
| 2026-05-04 04:10 | 33.94467 | -118.45515 | 2782 ft | 191 kts | 262° |
| 2026-05-04 04:10 | 33.94300 | -118.47232 | 3208 ft | 228 kts | 264° |
| 2026-05-04 04:10 | 33.94178 | -118.49248 | 3987 ft | 253 kts | 266° |
| 2026-05-04 04:10 | 33.94068 | -118.51415 | 4860 ft | 273 kts | 266° |
| 2026-05-04 04:11 | 33.93964 | -118.53724 | 6074 ft | 280 kts | 267° |
| 2026-05-04 04:11 | 33.93861 | -118.56020 | 7324 ft | 283 kts | 266° |
| 2026-05-04 04:11 | 33.93731 | -118.58366 | 8611 ft | 284 kts | 264° |
| 2026-05-04 04:11 | 33.93502 | -118.60682 | 9779 ft | 287 kts | 261° |
| 2026-05-04 04:12 | 33.93238 | -118.63030 | 11094 ft | 284 kts | 262° |
| 2026-05-04 04:12 | 33.93059 | -118.65372 | 12088 ft | 292 kts | 263° |
| 2026-05-04 04:12 | 33.92871 | -118.67953 | 12516 ft | 320 kts | 263° |
| 2026-05-04 04:12 | 33.92746 | -118.70612 | 13475 ft | 329 kts | 264° |
| 2026-05-04 04:13 | 33.92603 | -118.73434 | 14191 ft | 345 kts | 263° |
| 2026-05-04 04:13 | 33.92433 | -118.75536 | 14699 ft | 355 kts | 261° |
| 2026-05-04 04:13 | 33.92132 | -118.78491 | 15683 ft | 362 kts | 261° |
| 2026-05-04 04:13 | 33.91869 | -118.81518 | 16914 ft | 361 kts | 262° |
| 2026-05-04 04:14 | 33.91746 | -118.84484 | 18067 ft | 362 kts | 266° |
| 2026-05-04 04:14 | 33.91833 | -118.87536 | 19004 ft | 368 kts | 269° |
| 2026-05-04 04:14 | 33.91937 | -118.90584 | 19895 ft | 372 kts | 268° |
| 2026-05-04 04:14 | 33.92020 | -118.93694 | 20778 ft | 376 kts | 268° |
| 2026-05-04 04:15 | 33.92130 | -118.96860 | 21616 ft | 382 kts | 269° |
| 2026-05-04 04:15 | 33.92492 | -119.00011 | 22459 ft | 389 kts | 276° |
| 2026-05-04 04:15 | 33.93309 | -119.03169 | 23281 ft | 401 kts | 285° |
| 2026-05-04 04:15 | 33.94611 | -119.06151 | 24066 ft | 412 kts | 293° |
| 2026-05-04 04:16 | 33.96146 | -119.09081 | 24873 ft | 415 kts | 294° |
| 2026-05-04 04:16 | 33.97472 | -119.11641 | 25505 ft | 417 kts | 293° |
| 2026-05-04 04:16 | 33.98985 | -119.14558 | 26272 ft | 419 kts | 294° |
| 2026-05-04 04:16 | 34.00741 | -119.17406 | 26870 ft | 434 kts | 302° |
| 2026-05-04 04:17 | 34.03008 | -119.19925 | 27501 ft | 450 kts | 311° |
| 2026-05-04 04:17 | 34.05497 | -119.22163 | 28411 ft | 449 kts | 313° |
| 2026-05-04 04:17 | 34.08008 | -119.24360 | 29408 ft | 442 kts | 312° |
| 2026-05-04 04:17 | 34.10440 | -119.26524 | 30196 ft | 438 kts | 311° |
| 2026-05-04 04:18 | 34.12883 | -119.28696 | 31012 ft | 433 kts | 310° |
| 2026-05-04 04:18 | 34.15277 | -119.30801 | 31804 ft | 429 kts | 310° |
| 2026-05-04 04:18 | 34.17674 | -119.32882 | 32590 ft | 423 kts | 309° |
| 2026-05-04 04:18 | 34.20005 | -119.34896 | 33398 ft | 416 kts | 308° |
| 2026-05-04 04:19 | 34.22370 | -119.36943 | 34179 ft | 409 kts | 307° |
| 2026-05-04 04:19 | 34.24622 | -119.38906 | 34699 ft | 407 kts | 307° |
| 2026-05-04 04:19 | 34.26909 | -119.40906 | 35155 ft | 407 kts | 307° |
| 2026-05-04 04:19 | 34.29168 | -119.42874 | 35614 ft | 406 kts | 307° |
| 2026-05-04 04:20 | 34.31454 | -119.44859 | 36023 ft | 407 kts | 307° |
| 2026-05-04 04:20 | 34.33755 | -119.46856 | 36399 ft | 407 kts | 307° |
| 2026-05-04 04:20 | 34.36035 | -119.48838 | 36754 ft | 408 kts | 307° |
| 2026-05-04 04:20 | 34.38328 | -119.50830 | 37106 ft | 408 kts | 307° |
| 2026-05-04 04:21 | 34.40652 | -119.52848 | 37453 ft | 409 kts | 307° |
| 2026-05-04 04:21 | 34.42905 | -119.54858 | 37782 ft | 405 kts | 306° |
| 2026-05-04 04:21 | 34.45140 | -119.56979 | 38075 ft | 403 kts | 304° |
| 2026-05-04 04:21 | 34.47317 | -119.59071 | 38348 ft | 405 kts | 305° |
| 2026-05-04 04:22 | 34.49529 | -119.61168 | 38618 ft | 406 kts | 305° |
| 2026-05-04 04:22 | 34.51766 | -119.63274 | 38885 ft | 407 kts | 305° |
| 2026-05-04 04:22 | 34.53974 | -119.65359 | 39133 ft | 407 kts | 305° |
| 2026-05-04 04:22 | 34.56197 | -119.67467 | 39410 ft | 408 kts | 306° |
| 2026-05-04 04:23 | 34.58446 | -119.69605 | 39665 ft | 409 kts | 306° |
| 2026-05-04 04:23 | 34.60665 | -119.71713 | 39880 ft | 411 kts | 307° |
| 2026-05-04 04:23 | 34.62933 | -119.73861 | 40024 ft | 414 kts | 307° |
| 2026-05-04 04:23 | 34.65193 | -119.75999 | 40026 ft | 419 kts | 307° |
| 2026-05-04 04:24 | 34.69779 | -119.80330 | 40027 ft | 418 kts | 308° |
| 2026-05-04 04:24 | 34.74363 | -119.84673 | 40024 ft | 416 kts | 308° |
| 2026-05-04 04:25 | 34.78878 | -119.88970 | 40016 ft | 417 kts | 308° |
| 2026-05-04 04:25 | 34.83455 | -119.93326 | 40008 ft | 417 kts | 308° |
| 2026-05-04 04:26 | 34.87410 | -119.97092 | 40002 ft | 417 kts | 308° |
| 2026-05-04 04:26 | 34.91988 | -120.01465 | 40001 ft | 418 kts | 308° |
| 2026-05-04 04:27 | 34.96558 | -120.05833 | 40011 ft | 419 kts | 309° |
| 2026-05-04 04:27 | 35.01113 | -120.10199 | 40021 ft | 423 kts | 309° |
| 2026-05-04 04:28 | 35.05736 | -120.14629 | 40032 ft | 424 kts | 309° |
| 2026-05-04 04:28 | 35.10391 | -120.19051 | 40000 ft | 424 kts | 309° |
| 2026-05-04 04:29 | 35.14988 | -120.23501 | 40000 ft | 424 kts | 310° |
| 2026-05-04 04:29 | 35.19642 | -120.27928 | 40000 ft | 427 kts | 311° |
| 2026-05-04 04:30 | 35.24407 | -120.32237 | 40000 ft | 428 kts | 312° |
| 2026-05-04 04:30 | 35.29183 | -120.36609 | 40000 ft | 428 kts | 312° |
| 2026-05-04 04:31 | 35.33914 | -120.40943 | 40000 ft | 429 kts | 312° |
| 2026-05-04 04:31 | 35.38691 | -120.45324 | 40000 ft | 429 kts | 312° |
| 2026-05-04 04:32 | 35.43457 | -120.49707 | 40000 ft | 430 kts | 312° |
| 2026-05-04 04:32 | 35.48252 | -120.54122 | 39999 ft | 432 kts | 313° |
| 2026-05-04 04:33 | 35.53035 | -120.58527 | 39999 ft | 431 kts | 313° |
| 2026-05-04 04:33 | 35.57932 | -120.62762 | 40000 ft | 433 kts | 315° |
| 2026-05-04 04:34 | 35.62863 | -120.66975 | 39999 ft | 433 kts | 314° |
| 2026-05-04 04:34 | 35.67755 | -120.71192 | 40000 ft | 433 kts | 314° |
| 2026-05-04 04:35 | 35.72661 | -120.75424 | 40000 ft | 432 kts | 314° |
| 2026-05-04 04:35 | 35.77569 | -120.79668 | 40000 ft | 432 kts | 314° |
| 2026-05-04 04:36 | 35.82506 | -120.83946 | 40000 ft | 433 kts | 314° |
| 2026-05-04 04:36 | 35.87429 | -120.88218 | 40000 ft | 434 kts | 314° |
| 2026-05-04 04:37 | 35.97271 | -120.96773 | 40000 ft | 434 kts | 314° |
| 2026-05-04 04:38 | 36.02210 | -121.01083 | 40000 ft | 435 kts | 316° |
| 2026-05-04 04:38 | 36.07180 | -121.05436 | 39999 ft | 441 kts | 316° |
| 2026-05-04 04:39 | 36.12174 | -121.09795 | 40000 ft | 442 kts | 316° |
| 2026-05-04 04:39 | 36.17191 | -121.14188 | 40000 ft | 443 kts | 316° |
| 2026-05-04 04:40 | 36.22213 | -121.18594 | 39999 ft | 443 kts | 316° |
| 2026-05-04 04:40 | 36.27237 | -121.23008 | 40000 ft | 443 kts | 316° |
| 2026-05-04 04:41 | 36.32229 | -121.27402 | 40000 ft | 443 kts | 316° |
| 2026-05-04 04:41 | 36.37255 | -121.31832 | 40000 ft | 443 kts | 316° |
| 2026-05-04 04:42 | 36.42255 | -121.36248 | 40000 ft | 443 kts | 316° |